Time;durP1;ratioP1;P1;durP2;ratioP2;P2;SDS_P1;SDS_P2;PMS_P1;PMS_P2;Temp;Humidity;BMP_temperature;BMP_pressure;BME280_temperature;BME280_humidity;BME280_pressure;Samples;Min_cycle;Max_cycle;Signal;HPM_P1;HPM_P2
2022/08/23 00:01:23;;;;;;;9.02;3.22;;;18.90;96.50;;;;;;5060797;28;20080;-48
2022/08/23 00:03:50;;;;;;;11.15;4.43;;;18.90;96.60;;;;;;5048030;28;20500;-48
2022/08/23 00:06:18;;;;;;;11.18;4.45;;;18.80;96.90;;;;;;5065411;28;20059;-51
2022/08/23 00:08:47;;;;;;;9.82;3.95;;;18.80;96.80;;;;;;5052413;28;20136;-50
2022/08/23 00:11:25;;;;;;;11.98;4.82;;;18.80;96.80;;;;;;5052152;28;20131;-47
2022/08/23 00:13:52;;;;;;;16.38;5.35;;;18.70;97.50;;;;;;5067229;28;20059;-46
2022/08/23 00:16:19;;;;;;;6.40;3.95;;;18.70;97.80;;;;;;5075234;28;20547;-47
2022/08/23 00:18:45;;;;;;;7.35;3.85;;;18.70;97.80;;;;;;5075349;28;20500;-49
2022/08/23 00:21:13;;;;;;;7.10;3.67;;;18.60;97.70;;;;;;5075244;28;20551;-52
2022/08/23 00:23:41;;;;;;;10.15;3.75;;;18.60;97.60;;;;;;5069888;28;20048;-47
2022/08/23 00:26:07;;;;;;;6.20;3.70;;;18.50;97.40;;;;;;5055029;28;20101;-45
2022/08/23 00:28:34;;;;;;;8.10;4.18;;;18.50;97.50;;;;;;5050574;28;20160;-46
2022/08/23 00:31:01;;;;;;;6.88;3.15;;;18.50;97.50;;;;;;5055383;28;20106;-46
2022/08/23 00:33:28;;;;;;;6.68;3.80;;;18.50;97.40;;;;;;5048082;28;20484;-48
2022/08/23 00:35:55;;;;;;;7.38;3.97;;;18.40;97.70;;;;;;5055088;28;20138;-49
2022/08/23 00:38:24;;;;;;;8.63;3.72;;;18.40;97.50;;;;;;5054032;28;20136;-51
2022/08/23 00:40:52;;;;;;;10.20;3.90;;;18.40;97.40;;;;;;5053943;28;20071;-45
2022/08/23 00:48:54;;;;;;;6.45;3.67;;;18.30;97.30;;;;;;5055922;28;20052;-45
2022/08/23 00:51:22;;;;;;;9.35;4.05;;;18.20;97.50;;;;;;5054602;28;20396;-48
2022/08/23 00:53:50;;;;;;;8.10;3.80;;;18.30;97.20;;;;;;5070951;28;20096;-45
2022/08/23 00:56:19;;;;;;;11.93;3.72;;;18.20;97.60;;;;;;5073003;28;20048;-46
2022/08/23 00:58:46;;;;;;;8.63;3.85;;;18.20;97.20;;;;;;5053975;28;20100;-47
2022/08/23 01:01:13;;;;;;;12.05;4.68;;;18.20;97.20;;;;;;5054685;28;20114;-48
2022/08/23 01:03:42;;;;;;;6.85;3.65;;;18.20;97.70;;;;;;5051887;28;20103;-49
2022/08/23 01:06:11;;;;;;;7.28;4.25;;;18.10;98.00;;;;;;5064127;28;20049;-48
2022/08/23 01:08:38;;;;;;;6.40;4.20;;;18.10;98.30;;;;;;5053388;28;20564;-49
2022/08/23 01:11:08;;;;;;;7.30;3.70;;;18.00;98.00;;;;;;5053545;28;20150;-48
2022/08/23 01:13:37;;;;;;;9.80;3.50;;;18.00;98.00;;;;;;5069391;28;20056;-52
2022/08/23 01:16:07;;;;;;;7.65;4.43;;;18.00;98.00;;;;;;5070489;28;20056;-50
2022/08/23 01:18:33;;;;;;;7.38;3.90;;;18.00;98.20;;;;;;5051188;28;20111;-49
2022/08/23 01:21:03;;;;;;;6.70;4.43;;;17.90;98.20;;;;;;5053091;28;20571;-48
2022/08/23 01:23:33;;;;;;;6.80;3.53;;;17.90;98.30;;;;;;5067249;28;20156;-49
2022/08/23 01:26:00;;;;;;;7.57;4.15;;;17.90;98.40;;;;;;5074348;28;20099;-47
2022/08/23 01:28:26;;;;;;;8.77;4.45;;;17.90;98.30;;;;;;5054693;28;20057;-45
2022/08/23 01:30:53;;;;;;;10.30;4.43;;;17.80;98.20;;;;;;5053958;28;20064;-47
2022/08/23 01:33:20;;;;;;;7.70;4.63;;;17.80;98.20;;;;;;5052377;28;20564;-46
2022/08/23 01:35:49;;;;;;;9.10;4.85;;;17.80;98.30;;;;;;5050333;28;20084;-45
2022/08/23 01:38:15;;;;;;;6.25;3.47;;;17.70;98.40;;;;;;5053177;28;20524;-47
2022/08/23 01:40:44;;;;;;;7.60;4.38;;;17.70;98.10;;;;;;5053792;28;20128;-48
2022/08/23 01:43:11;;;;;;;6.57;3.97;;;17.70;98.60;;;;;;5052736;28;20381;-44
2022/08/23 01:45:38;;;;;;;5.95;3.70;;;17.70;98.60;;;;;;5052781;28;20167;-47
2022/08/23 01:48:05;;;;;;;7.45;4.28;;;17.60;98.30;;;;;;5055768;28;20084;-50
2022/08/23 01:50:32;;;;;;;7.75;4.70;;;17.60;98.50;;;;;;5061893;28;20048;-47
2022/08/23 01:52:59;;;;;;;9.65;4.80;;;17.60;99.00;;;;;;5057933;28;20045;-48
2022/08/23 01:55:26;;;;;;;7.93;5.38;;;17.50;99.00;;;;;;5057681;28;20092;-48
2022/08/23 01:57:55;;;;;;;6.78;4.18;;;17.50;99.20;;;;;;5052809;28;20045;-50
2022/08/23 02:00:23;;;;;;;5.47;3.80;;;17.50;99.00;;;;;;5053528;28;20060;-47
2022/08/23 02:02:51;;;;;;;8.75;4.07;;;17.50;98.90;;;;;;5053201;28;20132;-49
2022/08/23 02:05:18;;;;;;;7.60;4.57;;;17.50;98.80;;;;;;5056200;28;20132;-45
2022/08/23 02:07:45;;;;;;;7.68;4.22;;;17.40;98.70;;;;;;5049014;28;20049;-49
2022/08/23 02:10:13;;;;;;;6.38;4.50;;;17.40;98.70;;;;;;5052223;28;20044;-48
2022/08/23 02:12:39;;;;;;;9.68;4.40;;;17.40;98.70;;;;;;5052310;28;20053;-49
2022/08/23 02:15:08;;;;;;;20.80;4.43;;;17.30;98.90;;;;;;5063166;28;20128;-46
2022/08/23 02:17:35;;;;;;;7.53;4.45;;;17.30;98.60;;;;;;5054501;28;20045;-44
2022/08/23 02:20:04;;;;;;;6.65;4.53;;;17.30;98.60;;;;;;5045814;28;20103;-50
2022/08/23 02:22:31;;;;;;;6.25;4.00;;;17.30;98.70;;;;;;5045400;28;20072;-46
2022/08/23 02:24:57;;;;;;;6.10;3.83;;;17.30;98.80;;;;;;5060404;28;20072;-46
2022/08/23 02:27:24;;;;;;;7.70;3.67;;;17.30;99.00;;;;;;5053791;28;20052;-39
2022/08/23 02:29:51;;;;;;;9.45;4.07;;;17.20;98.80;;;;;;5052720;28;20053;-52
2022/08/23 02:32:19;;;;;;;6.50;4.70;;;17.20;98.80;;;;;;5052507;28;20049;-48
2022/08/23 02:34:46;;;;;;;5.53;3.80;;;17.20;98.90;;;;;;5049190;28;20087;-42
2022/08/23 02:37:13;;;;;;;6.78;3.67;;;17.20;99.10;;;;;;5051251;28;20076;-47
2022/08/23 02:39:40;;;;;;;9.57;3.95;;;17.20;99.30;;;;;;5059985;28;20507;-45
2022/08/23 02:42:07;;;;;;;6.72;4.68;;;17.10;99.40;;;;;;5063081;28;20080;-49
2022/08/23 02:44:34;;;;;;;5.88;3.97;;;17.10;99.70;;;;;;5057234;28;20051;-47
2022/08/23 02:47:01;;;;;;;6.53;3.83;;;17.10;99.50;;;;;;5050772;28;20135;-40
2022/08/23 02:49:30;;;;;;;7.10;4.10;;;17.00;99.30;;;;;;5036453;28;20060;-49
2022/08/23 02:51:57;;;;;;;7.13;3.30;;;17.00;99.10;;;;;;5064156;28;20543;-47
2022/08/23 02:54:24;;;;;;;5.82;4.00;;;17.00;98.90;;;;;;5066849;28;20147;-51
2022/08/23 02:56:51;;;;;;;8.85;4.35;;;17.00;98.90;;;;;;5051621;28;20055;-46
2022/08/23 02:59:18;;;;;;;8.57;4.63;;;17.00;99.00;;;;;;5071703;28;20040;-50
2022/08/23 03:01:45;;;;;;;5.57;4.15;;;17.00;99.20;;;;;;5067670;28;20056;-48
2022/08/23 03:04:12;;;;;;;6.60;4.30;;;16.90;99.10;;;;;;5053354;28;20412;-46
2022/08/23 03:06:43;;;;;;;11.18;5.10;;;16.90;98.90;;;;;;5060283;28;20094;-49
2022/08/23 03:09:10;;;;;;;7.35;4.35;;;16.90;99.00;;;;;;5071518;28;20057;-47
2022/08/23 03:11:37;;;;;;;7.85;4.68;;;16.80;99.00;;;;;;5071573;28;20040;-51
2022/08/23 03:14:04;;;;;;;7.72;4.35;;;16.80;99.10;;;;;;5058848;28;20147;-49
2022/08/23 03:16:30;;;;;;;7.22;4.28;;;16.80;98.90;;;;;;5052373;28;20053;-51
2022/08/23 03:18:57;;;;;;;7.38;5.05;;;16.80;98.90;;;;;;5051431;28;20128;-47
2022/08/23 03:21:24;;;;;;;6.43;4.43;;;16.80;99.00;;;;;;5052360;28;20551;-47
2022/08/23 03:23:52;;;;;;;10.68;6.95;;;16.80;98.90;;;;;;5053077;28;20136;-48
2022/08/23 03:26:19;;;;;;;9.75;6.32;;;16.80;99.10;;;;;;5064062;28;20149;-45
2022/08/23 03:28:46;;;;;;;9.10;5.35;;;16.80;99.20;;;;;;5056284;28;20055;-46
2022/08/23 03:31:14;;;;;;;10.20;6.50;;;16.70;99.20;;;;;;5069585;28;20496;-47
2022/08/23 03:33:41;;;;;;;11.32;6.60;;;16.70;99.30;;;;;;5056008;28;20488;-44
2022/08/23 03:36:09;;;;;;;10.80;5.88;;;16.70;99.40;;;;;;5061925;28;20076;-49
2022/08/23 03:38:36;;;;;;;11.07;7.50;;;16.70;99.50;;;;;;5071095;28;20044;-46
2022/08/23 03:41:05;;;;;;;8.02;6.93;;;16.70;99.60;;;;;;5052395;28;20053;-48
2022/08/23 03:43:32;;;;;;;8.70;5.47;;;16.70;99.70;;;;;;5072873;28;20045;-49
2022/08/23 03:45:58;;;;;;;8.70;5.80;;;16.60;99.50;;;;;;5072901;28;20884;-48
2022/08/23 03:48:26;;;;;;;9.90;6.07;;;16.60;99.50;;;;;;5068744;28;20072;-47
2022/08/23 03:50:53;;;;;;;10.20;5.75;;;16.60;99.60;;;;;;5051042;28;20099;-46
2022/08/23 03:53:20;;;;;;;9.15;6.05;;;16.60;99.60;;;;;;5055812;28;20053;-49
2022/08/23 03:55:47;;;;;;;11.27;7.03;;;16.60;99.60;;;;;;5065949;28;20550;-47
2022/08/23 03:58:15;;;;;;;7.50;5.53;;;16.60;99.80;;;;;;5068147;28;20048;-44
2022/08/23 04:00:41;;;;;;;9.90;7.13;;;16.60;99.50;;;;;;5053968;28;20132;-47
2022/08/23 04:03:08;;;;;;;7.22;5.80;;;16.60;99.70;;;;;;5054235;28;20072;-47
2022/08/23 04:05:35;;;;;;;10.65;6.00;;;16.60;99.70;;;;;;5061108;28;20477;-44
2022/08/23 04:08:08;;;;;;;10.40;6.90;;;16.60;99.50;;;;;;5075537;28;20050;-48
2022/08/23 04:10:35;;;;;;;10.00;7.57;;;16.60;99.60;;;;;;5051870;28;20136;-44
2022/08/23 04:13:01;;;;;;;9.90;7.57;;;16.60;99.90;;;;;;5073949;28;20076;-46
2022/08/23 04:15:30;;;;;;;11.95;8.02;;;16.60;99.90;;;;;;5060027;28;20124;-46
2022/08/23 04:17:58;;;;;;;11.07;7.63;;;16.60;99.90;;;;;;5066046;28;20049;-48
2022/08/23 04:20:25;;;;;;;10.65;8.05;;;16.60;99.90;;;;;;5054823;28;20127;-47
2022/08/23 04:22:53;;;;;;;12.25;8.80;;;16.60;99.90;;;;;;5054173;28;20132;-50
2022/08/23 04:25:20;;;;;;;10.38;8.02;;;16.60;99.90;;;;;;5052032;28;20075;-49
2022/08/23 04:27:47;;;;;;;11.43;8.88;;;16.60;99.90;;;;;;5055102;28;20130;-48
2022/08/23 04:30:13;;;;;;;15.60;8.52;;;16.60;99.90;;;;;;5054130;28;20127;-43
2022/08/23 04:32:41;;;;;;;14.30;9.95;;;16.60;99.90;;;;;;5068986;28;20492;-52
2022/08/23 04:35:09;;;;;;;11.77;7.72;;;16.60;99.90;;;;;;5069772;28;20469;-50
2022/08/23 04:37:36;;;;;;;12.70;7.72;;;16.50;99.90;;;;;;5053264;28;20048;-46
2022/08/23 04:42:47;;;;;;;11.05;9.68;;;16.50;99.90;;;;;;5062932;28;20064;-48
2022/08/23 04:45:14;;;;;;;13.73;10.18;;;16.50;99.90;;;;;;5071950;28;20083;-46
2022/08/23 04:47:43;;;;;;;14.23;6.70;;;16.50;99.90;;;;;;5073136;28;20079;-51
2022/08/23 04:50:10;;;;;;;11.30;9.15;;;16.50;99.90;;;;;;5051709;28;20107;-46
2022/08/23 04:52:37;;;;;;;9.88;7.20;;;16.50;99.90;;;;;;5068468;28;20087;-45
2022/08/23 04:55:04;;;;;;;14.98;9.50;;;16.50;99.90;;;;;;5053553;28;20564;-49
2022/08/23 04:57:31;;;;;;;12.10;9.57;;;16.50;99.90;;;;;;5057860;28;20107;-51
2022/08/23 04:59:59;;;;;;;8.95;7.32;;;16.50;99.90;;;;;;5052946;28;20053;-47
2022/08/23 05:02:26;;;;;;;11.52;8.75;;;16.50;99.90;;;;;;5066982;28;20060;-43
2022/08/23 05:04:54;;;;;;;12.88;8.70;;;16.50;99.90;;;;;;5072561;28;20132;-46
2022/08/23 05:07:21;;;;;;;10.65;8.80;;;16.50;99.90;;;;;;5072103;28;20044;-46
2022/08/23 05:09:48;;;;;;;11.32;8.32;;;16.50;99.90;;;;;;5074380;28;20399;-44
2022/08/23 05:12:15;;;;;;;13.70;8.98;;;16.50;99.90;;;;;;5072919;28;20454;-48
2022/08/23 05:14:41;;;;;;;8.65;7.20;;;16.50;99.90;;;;;;5060451;28;20056;-45
2022/08/23 05:17:08;;;;;;;9.57;7.93;;;16.50;99.90;;;;;;5064303;28;20066;-38
2022/08/23 05:19:35;;;;;;;12.82;8.73;;;16.50;99.90;;;;;;5052226;28;20049;-47
2022/08/23 05:22:03;;;;;;;17.13;10.18;;;16.50;99.90;;;;;;5054345;28;20132;-47
2022/08/23 05:24:30;;;;;;;17.70;11.00;;;16.50;99.90;;;;;;5053951;28;20045;-47
2022/08/23 05:26:57;;;;;;;19.27;9.85;;;16.60;99.90;;;;;;5054187;28;20135;-50
2022/08/23 05:29:23;;;;;;;16.38;8.30;;;16.50;99.90;;;;;;5052520;28;20140;-47
2022/08/23 05:31:50;;;;;;;25.30;12.20;;;16.60;99.90;;;;;;5053658;28;20080;-39
2022/08/23 05:34:17;;;;;;;23.55;10.73;;;16.60;99.90;;;;;;5073238;28;20143;-48
2022/08/23 05:36:44;;;;;;;26.58;11.77;;;16.60;99.90;;;;;;5053326;28;20044;-47
2022/08/23 05:39:12;;;;;;;19.27;8.57;;;16.60;99.90;;;;;;5060103;28;20369;-50
2022/08/23 05:41:40;;;;;;;33.40;12.52;;;16.60;99.90;;;;;;5056311;28;20052;-46
2022/08/23 05:44:06;;;;;;;21.40;9.45;;;16.70;99.90;;;;;;5064533;28;20138;-48
2022/08/23 05:46:33;;;;;;;23.08;14.68;;;16.70;99.90;;;;;;5051766;28;20051;-48
2022/08/23 05:49:00;;;;;;;23.58;14.15;;;16.70;99.90;;;;;;5052128;28;20045;-48
2022/08/23 05:51:27;;;;;;;25.17;15.32;;;16.70;99.90;;;;;;5053633;28;20057;-47
2022/08/23 05:53:56;;;;;;;20.85;13.48;;;16.80;99.90;;;;;;5034085;28;20496;-48
2022/08/23 05:56:25;;;;;;;17.77;14.05;;;16.90;99.90;;;;;;5051518;28;20139;-47
2022/08/23 05:58:56;;;;;;;21.52;14.77;;;17.00;99.90;;;;;;5061415;28;20076;-49
2022/08/23 06:01:23;;;;;;;24.45;15.63;;;17.00;99.90;;;;;;5061158;28;20044;-49
2022/08/23 06:03:50;;;;;;;24.08;15.23;;;17.10;99.90;;;;;;5054871;28;20135;-40
2022/08/23 06:06:17;;;;;;;16.98;14.43;;;17.20;99.90;;;;;;5068798;28;20052;-47
2022/08/23 06:08:45;;;;;;;18.77;14.98;;;17.30;99.90;;;;;;5057413;28;20142;-49
2022/08/23 06:11:13;;;;;;;20.63;14.73;;;17.40;99.90;;;;;;5068421;28;20049;-52
2022/08/23 06:13:42;;;;;;;23.92;14.88;;;17.50;99.90;;;;;;5069487;28;20127;-43
2022/08/23 06:16:09;;;;;;;18.30;13.60;;;17.70;99.90;;;;;;5054034;28;20083;-46
2022/08/23 06:18:36;;;;;;;15.60;12.77;;;17.70;99.90;;;;;;5050083;28;20498;-47
2022/08/23 06:21:04;;;;;;;19.42;14.65;;;17.80;99.90;;;;;;5068800;28;20099;-42
2022/08/23 06:23:31;;;;;;;18.25;13.23;;;17.90;99.90;;;;;;5058864;28;20678;-51
2022/08/23 06:25:58;;;;;;;16.92;13.55;;;18.00;99.90;;;;;;5056189;28;20488;-51
2022/08/23 06:28:25;;;;;;;17.30;13.48;;;18.10;99.90;;;;;;5051453;28;20128;-49
2022/08/23 06:30:54;;;;;;;20.40;13.65;;;18.20;99.90;;;;;;5063260;28;20090;-47
2022/08/23 06:33:21;;;;;;;18.38;13.13;;;18.40;99.90;;;;;;5051553;28;20463;-49
2022/08/23 06:35:49;;;;;;;16.85;11.88;;;18.50;99.90;;;;;;5048090;28;20063;-47
2022/08/23 06:38:16;;;;;;;18.33;12.27;;;18.60;99.90;;;;;;5047838;28;20049;-47
2022/08/23 06:40:43;;;;;;;19.50;12.23;;;18.70;99.90;;;;;;5058332;28;20393;-48
2022/08/23 06:43:10;;;;;;;16.35;12.30;;;18.90;99.90;;;;;;5053388;28;20057;-44
2022/08/23 06:45:36;;;;;;;23.50;12.73;;;19.00;99.90;;;;;;5051299;28;20060;-47
2022/08/23 06:48:05;;;;;;;16.58;11.52;;;19.10;99.90;;;;;;5056603;28;20080;-52
2022/08/23 06:50:32;;;;;;;29.15;11.18;;;19.20;99.90;;;;;;5064541;28;20128;-46
2022/08/23 06:52:58;;;;;;;16.70;11.25;;;19.30;99.90;;;;;;5069423;28;20052;-49
2022/08/23 06:55:25;;;;;;;16.15;10.88;;;19.50;99.90;;;;;;5069459;28;20057;-44
2022/08/23 06:57:52;;;;;;;13.45;10.15;;;19.60;99.90;;;;;;5058563;28;20136;-48
2022/08/23 07:00:19;;;;;;;14.93;10.35;;;19.70;99.90;;;;;;5056161;28;20076;-47
2022/08/23 07:02:46;;;;;;;14.52;9.82;;;19.80;99.90;;;;;;5052873;28;20052;-45
2022/08/23 07:05:14;;;;;;;18.30;9.95;;;20.00;99.90;;;;;;5051387;28;20377;-47
2022/08/23 07:07:41;;;;;;;14.68;9.50;;;20.10;99.90;;;;;;5068661;28;20052;-49
2022/08/23 07:10:09;;;;;;;13.90;9.45;;;20.20;99.90;;;;;;5068220;28;20128;-46
2022/08/23 07:12:39;;;;;;;11.32;8.73;;;20.30;99.70;;;;;;5071579;28;20075;-47
2022/08/23 07:15:07;;;;;;;16.80;10.27;;;20.40;99.50;;;;;;5060659;28;20057;-44
2022/08/23 07:17:34;;;;;;;14.35;9.18;;;20.50;99.20;;;;;;5045038;28;20099;-46
2022/08/23 07:20:01;;;;;;;15.10;8.38;;;20.60;99.30;;;;;;5054012;28;20483;-44
2022/08/23 07:22:29;;;;;;;11.35;8.23;;;20.80;99.10;;;;;;5062518;28;20111;-44
2022/08/23 07:24:56;;;;;;;14.30;8.77;;;20.90;98.50;;;;;;5065134;28;20091;-47
2022/08/23 07:27:23;;;;;;;19.48;8.85;;;20.90;98.30;;;;;;5056073;28;20060;-48
2022/08/23 07:29:49;;;;;;;17.92;8.95;;;21.00;98.60;;;;;;5062191;28;20049;-49
2022/08/23 07:32:16;;;;;;;12.02;8.52;;;21.00;98.30;;;;;;5053005;28;20045;-47
2022/08/23 07:34:43;;;;;;;12.52;8.30;;;21.00;98.30;;;;;;5055942;28;20135;-47
2022/08/23 07:37:11;;;;;;;13.73;8.32;;;21.00;98.30;;;;;;5065662;28;20067;-47
2022/08/23 07:39:39;;;;;;;9.57;8.00;;;21.00;98.40;;;;;;5075075;28;20060;-46
2022/08/23 07:42:07;;;;;;;17.25;8.45;;;21.00;98.40;;;;;;5073065;28;20060;-49
2022/08/23 07:44:34;;;;;;;16.92;8.65;;;21.20;98.30;;;;;;5059232;28;20135;-45
2022/08/23 07:47:01;;;;;;;14.80;8.95;;;21.30;98.10;;;;;;5044992;28;21500;-47
2022/08/23 07:49:28;;;;;;;17.02;8.73;;;21.30;97.70;;;;;;5053678;28;20087;-52
2022/08/23 07:51:57;;;;;;;14.18;7.95;;;21.30;97.40;;;;;;5053801;28;20076;-46
2022/08/23 07:54:24;;;;;;;11.35;7.20;;;21.40;97.40;;;;;;5055710;28;20134;-48
2022/08/23 07:56:52;;;;;;;13.20;8.50;;;21.50;97.20;;;;;;5055860;28;20052;-44
2022/08/23 07:59:19;;;;;;;14.63;8.07;;;21.60;97.10;;;;;;5054374;28;20045;-47
2022/08/23 08:01:46;;;;;;;11.80;8.23;;;21.80;96.80;;;;;;5046177;28;20462;-48
2022/08/23 08:04:13;;;;;;;11.93;7.93;;;21.90;96.50;;;;;;5053826;28;20103;-43
2022/08/23 08:06:41;;;;;;;12.70;8.10;;;22.20;96.30;;;;;;5053330;28;20053;-44
2022/08/23 08:09:08;;;;;;;13.55;7.63;;;22.30;95.90;;;;;;5053357;28;20123;-42
2022/08/23 08:11:34;;;;;;;12.60;7.90;;;22.40;95.60;;;;;;5052714;28;20137;-46
2022/08/23 08:14:04;;;;;;;12.95;7.57;;;22.60;95.20;;;;;;5052358;28;20472;-47
2022/08/23 08:16:33;;;;;;;14.55;6.85;;;22.70;94.80;;;;;;5063033;28;20053;-50
2022/08/23 08:19:01;;;;;;;8.88;6.90;;;22.80;94.80;;;;;;5057416;28;20132;-52
2022/08/23 08:21:28;;;;;;;9.95;7.30;;;22.90;94.70;;;;;;5048286;28;20060;-51
2022/08/23 08:23:55;;;;;;;11.52;7.13;;;23.10;94.70;;;;;;5050539;28;20123;-45
2022/08/23 08:26:21;;;;;;;8.55;6.57;;;23.30;94.30;;;;;;5048868;28;20557;-50
2022/08/23 08:28:48;;;;;;;15.13;7.43;;;23.50;94.00;;;;;;5067420;28;20090;-53
2022/08/23 08:31:17;;;;;;;15.38;6.95;;;23.70;93.60;;;;;;5066733;28;20099;-51
2022/08/23 08:33:43;;;;;;;8.82;5.95;;;23.80;93.30;;;;;;5056114;28;20107;-47
2022/08/23 08:36:27;;;;;;;9.48;6.40;;;23.90;93.40;;;;;;5071389;28;20052;-46
2022/08/23 08:38:53;;;;;;;11.32;6.10;;;24.00;93.10;;;;;;5056529;28;20099;-49
2022/08/23 08:41:24;;;;;;;11.05;6.50;;;24.20;92.70;;;;;;5063368;28;20059;-48
2022/08/23 08:43:55;;;;;;;8.60;5.43;;;24.30;92.30;;;;;;5052328;28;20677;-44
2022/08/23 08:46:26;;;;;;;9.82;5.57;;;24.50;92.10;;;;;;5054185;28;20044;-44
2022/08/23 08:48:55;;;;;;;12.70;6.30;;;24.60;91.60;;;;;;5060238;28;20083;-46
2022/08/23 08:51:32;;;;;;;7.32;4.63;;;24.60;91.30;;;;;;5053056;28;20044;-49
2022/08/23 08:53:59;;;;;;;15.20;5.18;;;24.70;91.40;;;;;;5070139;28;20528;-48
2022/08/23 08:56:27;;;;;;;10.27;5.00;;;24.70;91.10;;;;;;5053328;28;20049;-44
2022/08/23 08:58:55;;;;;;;9.68;5.55;;;24.80;91.20;;;;;;5055054;28;20049;-45
2022/08/23 09:01:24;;;;;;;9.07;5.40;;;24.90;90.90;;;;;;5048016;28;20057;-50
2022/08/23 09:03:51;;;;;;;12.05;5.18;;;25.00;90.40;;;;;;5051010;28;20052;-48
2022/08/23 09:06:21;;;;;;;10.52;5.05;;;25.10;90.70;;;;;;5049077;28;20103;-48
2022/08/23 09:08:57;;;;;;;11.18;4.95;;;25.20;90.40;;;;;;5053751;28;20488;-47
2022/08/23 09:11:30;;;;;;;11.55;5.28;;;25.40;90.00;;;;;;5037475;28;20053;-47
2022/08/23 09:14:10;;;;;;;18.55;5.00;;;25.50;89.70;;;;;;5050081;28;20072;-46
2022/08/23 09:16:45;;;;;;;11.98;5.57;;;25.60;89.40;;;;;;5068059;28;20106;-49
2022/08/23 09:19:12;;;;;;;11.95;5.53;;;25.60;89.10;;;;;;5058151;28;20123;-44
2022/08/23 09:21:43;;;;;;;9.38;4.30;;;25.70;88.80;;;;;;5061480;28;20131;-48
2022/08/23 09:24:10;;;;;;;15.05;5.45;;;25.80;89.20;;;;;;5051600;28;20132;-52
2022/08/23 09:26:37;;;;;;;7.00;4.60;;;25.90;88.60;;;;;;5059549;28;20130;-51
2022/08/23 09:29:08;;;;;;;8.45;4.20;;;26.10;87.90;;;;;;5060277;28;20107;-51
2022/08/23 09:31:41;;;;;;;8.88;4.15;;;26.30;86.80;;;;;;5053196;28;20460;-53
2022/08/23 09:34:08;;;;;;;7.80;4.05;;;26.60;86.50;;;;;;5051982;28;20060;-53
2022/08/23 09:36:36;;;;;;;8.95;4.72;;;26.80;85.80;;;;;;5053732;28;20128;-50
2022/08/23 09:39:06;;;;;;;12.48;4.63;;;26.80;83.70;;;;;;5052901;28;20136;-46
2022/08/23 09:41:35;;;;;;;7.88;4.57;;;26.90;83.60;;;;;;5050095;28;20076;-40
2022/08/23 09:44:03;;;;;;;9.02;4.45;;;27.00;82.70;;;;;;5052732;28;20048;-52
2022/08/23 09:46:31;;;;;;;7.28;4.22;;;27.00;83.30;;;;;;5052173;28;20053;-49
2022/08/23 09:49:00;;;;;;;10.68;4.20;;;27.30;83.40;;;;;;5052203;28;20760;-52
2022/08/23 09:51:29;;;;;;;14.10;3.75;;;27.50;81.20;;;;;;5052695;28;20076;-51
2022/08/23 09:54:06;;;;;;;10.10;4.57;;;27.60;80.40;;;;;;5052750;28;20081;-49
2022/08/23 09:56:35;;;;;;;10.43;4.25;;;27.70;78.40;;;;;;5047622;28;20570;-47
2022/08/23 09:59:02;;;;;;;9.20;3.55;;;27.80;78.30;;;;;;5051899;28;20051;-55
2022/08/23 10:01:30;;;;;;;8.80;3.75;;;28.00;78.00;;;;;;5051827;28;20049;-49
2022/08/23 10:04:10;;;;;;;9.27;3.83;;;28.10;76.10;;;;;;5049179;28;21028;-52
2022/08/23 10:06:37;;;;;;;9.50;3.58;;;28.30;77.00;;;;;;5051594;28;20053;-47
2022/08/23 10:09:05;;;;;;;11.15;4.03;;;28.40;75.30;;;;;;5052257;28;20052;-50
2022/08/23 10:11:34;;;;;;;8.50;3.95;;;28.40;74.90;;;;;;5053010;28;20098;-52
2022/08/23 10:14:01;;;;;;;6.70;3.70;;;28.40;74.60;;;;;;5052964;28;20085;-53
2022/08/23 10:16:33;;;;;;;8.35;3.72;;;28.50;73.70;;;;;;5048372;28;20072;-53
2022/08/23 10:19:03;;;;;;;10.38;4.03;;;28.50;73.30;;;;;;5052594;28;20067;-51
2022/08/23 10:21:37;;;;;;;7.75;3.30;;;28.60;72.80;;;;;;5038456;28;20079;-52
2022/08/23 10:24:17;;;;;;;7.18;3.30;;;28.60;71.80;;;;;;5037535;28;20166;-50
2022/08/23 10:26:54;;;;;;;6.78;3.33;;;28.80;73.10;;;;;;5051153;28;20129;-52
2022/08/23 10:29:36;;;;;;;5.35;2.97;;;29.00;72.80;;;;;;5048213;28;20480;-52
2022/08/23 10:32:15;;;;;;;12.93;3.95;;;29.10;71.50;;;;;;5051391;28;20128;-52
2022/08/23 10:34:45;;;;;;;6.80;3.25;;;29.10;70.40;;;;;;5048438;28;20504;-44
2022/08/23 10:37:23;;;;;;;8.67;3.87;;;29.20;70.60;;;;;;5051322;28;20155;-45
2022/08/23 10:39:54;;;;;;;8.07;3.28;;;29.40;70.30;;;;;;5049812;28;20828;-53
2022/08/23 10:42:23;;;;;;;;;;;29.40;69.80;;;;;;5051451;28;20080;-47
2022/08/23 10:44:52;;;;;;;7.25;3.05;;;29.50;70.50;;;;;;5049777;28;19999;-41
2022/08/23 10:47:22;;;;;;;7.90;3.65;;;29.60;70.60;;;;;;5048099;28;20099;-52
2022/08/23 10:49:50;;;;;;;9.30;4.00;;;29.70;68.80;;;;;;5049327;28;20048;-48
2022/08/23 10:52:20;;;;;;;9.50;2.70;;;29.80;68.20;;;;;;5051506;28;20110;-45
2022/08/23 10:54:58;;;;;;;9.38;3.10;;;29.90;68.00;;;;;;5046271;28;20508;-48
2022/08/23 10:57:30;;;;;;;10.00;3.40;;;30.00;67.70;;;;;;5050772;28;20059;-45
2022/08/23 10:59:57;;;;;;;12.63;4.15;;;30.20;66.40;;;;;;5049153;28;20488;-46
2022/08/23 11:02:29;;;;;;;10.27;3.30;;;30.30;65.20;;;;;;5051063;28;20484;-45
2022/08/23 11:04:59;;;;;;;7.63;2.63;;;30.30;63.60;;;;;;5037568;28;20073;-45
2022/08/23 11:07:28;;;;;;;8.13;3.30;;;30.40;64.30;;;;;;5049703;28;20512;-46
2022/08/23 11:09:58;;;;;;;7.82;3.10;;;30.50;63.80;;;;;;5047242;28;20126;-49
2022/08/23 11:12:29;;;;;;;10.10;3.22;;;30.70;64.30;;;;;;5046593;28;20048;-50
2022/08/23 11:15:29;;;;;;;6.90;2.92;;;30.80;64.20;;;;;;5046613;28;20492;-47
2022/08/23 11:18:01;;;;;;;10.23;3.25;;;30.90;64.10;;;;;;5044801;28;20512;-50
2022/08/23 11:21:13;;;;;;;8.10;2.80;;;31.00;63.60;;;;;;5048396;28;20411;-48
2022/08/23 11:23:53;;;;;;;14.20;3.30;;;31.10;63.20;;;;;;5031107;28;20057;-52
2022/08/23 11:27:00;;;;;;;9.27;2.70;;;31.20;62.40;;;;;;5043096;28;20059;-47
2022/08/23 11:29:27;;;;;;;10.38;2.75;;;31.30;62.80;;;;;;5046613;28;20120;-52
2022/08/23 11:31:59;;;;;;;8.07;3.33;;;31.30;61.90;;;;;;5049627;28;20075;-52
2022/08/23 11:34:28;;;;;;;8.48;2.90;;;31.30;60.50;;;;;;5050685;28;20045;-50
2022/08/23 11:37:29;;;;;;;6.57;3.17;;;31.20;59.80;;;;;;5049711;28;20053;-52
2022/08/23 11:40:07;;;;;;;;;;;31.30;60.50;;;;;;5047892;28;20179;-48
2022/08/23 11:42:45;;;;;;;9.88;3.00;;;31.30;62.40;;;;;;5050592;28;20438;-52
2022/08/23 11:45:22;;;;;;;11.10;3.00;;;31.50;60.40;;;;;;5052367;28;20088;-52
2022/08/23 11:47:52;;;;;;;11.23;2.83;;;31.60;61.10;;;;;;5049427;28;20163;-52
2022/08/23 11:50:24;;;;;;;10.82;2.80;;;31.60;60.20;;;;;;5050488;28;20041;-48
2022/08/23 11:53:08;;;;;;;9.25;3.03;;;31.80;60.50;;;;;;5043362;28;20056;-49
2022/08/23 11:56:02;;;;;;;7.53;3.20;;;31.90;60.00;;;;;;5046645;28;20088;-49
2022/08/23 11:58:32;;;;;;;7.72;3.30;;;32.00;59.30;;;;;;5042242;28;20083;-53
2022/08/23 12:01:06;;;;;;;7.20;3.47;;;31.90;58.90;;;;;;5025804;28;20104;-49
2022/08/23 12:03:35;;;;;;;9.98;3.40;;;31.90;59.70;;;;;;5042637;28;20053;-49
2022/08/23 12:06:27;;;;;;;8.20;3.33;;;31.90;58.90;;;;;;5053624;28;20052;-52
2022/08/23 12:08:54;;;;;;;7.65;2.88;;;32.00;58.50;;;;;;5053262;28;20053;-50
2022/08/23 12:11:24;;;;;;;13.57;3.05;;;32.00;58.10;;;;;;5041825;28;20409;-49
2022/08/23 12:14:00;;;;;;;11.10;3.15;;;32.20;57.30;;;;;;5054451;28;20088;-49
2022/08/23 12:16:37;;;;;;;6.85;2.90;;;32.40;57.90;;;;;;5053115;28;20132;-49
2022/08/23 12:19:07;;;;;;;8.20;3.42;;;32.60;58.30;;;;;;5035753;28;20132;-50
2022/08/23 12:21:40;;;;;;;8.48;3.30;;;32.60;57.30;;;;;;5036773;28;20053;-52
2022/08/23 12:24:14;;;;;;;9.02;3.20;;;32.60;57.60;;;;;;5055330;28;20489;-52
2022/08/23 12:26:48;;;;;;;9.65;3.50;;;32.60;55.60;;;;;;5051584;28;20103;-53
2022/08/23 12:29:21;;;;;;;5.80;2.67;;;32.70;56.50;;;;;;5031946;28;20059;-48
2022/08/23 12:31:51;;;;;;;9.82;3.13;;;32.70;54.10;;;;;;5050195;28;20052;-53
2022/08/23 12:34:21;;;;;;;15.27;3.28;;;32.50;53.40;;;;;;5036343;28;20080;-50
2022/08/23 12:36:55;;;;;;;7.03;2.80;;;32.30;53.20;;;;;;5033527;28;20053;-51
2022/08/23 12:39:25;;;;;;;6.75;2.63;;;32.10;54.70;;;;;;5050798;28;20154;-50
2022/08/23 12:41:55;;;;;;;5.78;2.60;;;31.90;55.20;;;;;;5030282;28;20405;-46
2022/08/23 12:44:24;;;;;;;6.70;2.65;;;31.90;54.50;;;;;;5029848;28;20145;-49
2022/08/23 12:46:51;;;;;;;3.83;2.00;;;31.80;55.40;;;;;;5045918;28;20540;-52
2022/08/23 12:49:26;;;;;;;8.68;2.42;;;31.80;56.60;;;;;;5028932;28;20136;-51
2022/08/23 12:51:56;;;;;;;8.77;3.28;;;31.80;55.70;;;;;;5044158;28;20069;-46
2022/08/23 12:54:23;;;;;;;5.97;2.75;;;31.70;56.00;;;;;;5033039;28;20064;-42
2022/08/23 12:56:51;;;;;;;10.52;2.78;;;31.70;57.10;;;;;;5049129;28;20049;-52
2022/08/23 12:59:33;;;;;;;10.40;3.25;;;31.70;56.40;;;;;;5052691;28;20073;-50